sensor_id;sensor_type;location;lat;lon;timestamp;P1;durP1;ratioP1;P2;durP2;ratioP2
65238;SDS011;51827;51.186;6.926;2023-01-16T00:00:47;2.77;;;1.30;;
65238;SDS011;51827;51.186;6.926;2023-01-16T00:01:48;2.25;;;1.15;;
65238;SDS011;51827;51.186;6.926;2023-01-16T00:02:48;4.32;;;1.60;;
65238;SDS011;51827;51.186;6.926;2023-01-16T00:03:49;1.93;;;1.10;;
65238;SDS011;51827;51.186;6.926;2023-01-16T00:04:49;1.43;;;0.93;;
65238;SDS011;51827;51.186;6.926;2023-01-16T00:05:49;1.90;;;1.20;;
65238;SDS011;51827;51.186;6.926;2023-01-16T00:06:49;1.93;;;1.00;;
65238;SDS011;51827;51.186;6.926;2023-01-16T00:07:50;2.17;;;1.30;;
65238;SDS011;51827;51.186;6.926;2023-01-16T00:08:50;1.70;;;1.10;;
65238;SDS011;51827;51.186;6.926;2023-01-16T00:09:50;1.70;;;1.13;;
65238;SDS011;51827;51.186;6.926;2023-01-16T00:10:50;3.43;;;1.20;;
65238;SDS011;51827;51.186;6.926;2023-01-16T00:11:51;2.00;;;1.10;;
65238;SDS011;51827;51.186;6.926;2023-01-16T00:12:51;2.53;;;1.20;;
65238;SDS011;51827;51.186;6.926;2023-01-16T00:13:51;2.13;;;1.10;;
65238;SDS011;51827;51.186;6.926;2023-01-16T00:14:51;2.80;;;1.20;;
65238;SDS011;51827;51.186;6.926;2023-01-16T00:15:52;2.17;;;1.10;;
65238;SDS011;51827;51.186;6.926;2023-01-16T00:16:52;3.03;;;1.23;;
65238;SDS011;51827;51.186;6.926;2023-01-16T00:17:52;2.57;;;1.27;;
65238;SDS011;51827;51.186;6.926;2023-01-16T00:18:53;1.97;;;1.20;;
65238;SDS011;51827;51.186;6.926;2023-01-16T00:19:53;2.60;;;1.10;;
65238;SDS011;51827;51.186;6.926;2023-01-16T00:20:53;2.67;;;1.43;;
65238;SDS011;51827;51.186;6.926;2023-01-16T00:21:54;2.17;;;1.23;;
65238;SDS011;51827;51.186;6.926;2023-01-16T00:22:54;2.10;;;1.20;;
65238;SDS011;51827;51.186;6.926;2023-01-16T00:23:54;2.67;;;1.23;;
65238;SDS011;51827;51.186;6.926;2023-01-16T00:24:56;1.42;;;1.10;;
65238;SDS011;51827;51.186;6.926;2023-01-16T00:25:56;2.00;;;1.00;;
65238;SDS011;51827;51.186;6.926;2023-01-16T00:26:56;2.22;;;1.30;;
65238;SDS011;51827;51.186;6.926;2023-01-16T00:27:57;1.17;;;0.97;;
65238;SDS011;51827;51.186;6.926;2023-01-16T00:28:57;2.93;;;1.17;;
65238;SDS011;51827;51.186;6.926;2023-01-16T00:29:57;3.90;;;1.30;;
65238;SDS011;51827;51.186;6.926;2023-01-16T00:30:58;2.67;;;1.20;;
65238;SDS011;51827;51.186;6.926;2023-01-16T00:31:58;4.67;;;1.40;;
65238;SDS011;51827;51.186;6.926;2023-01-16T00:32:58;1.90;;;1.00;;
65238;SDS011;51827;51.186;6.926;2023-01-16T00:33:58;2.70;;;1.33;;
65238;SDS011;51827;51.186;6.926;2023-01-16T00:34:59;3.20;;;1.00;;
65238;SDS011;51827;51.186;6.926;2023-01-16T00:35:59;2.13;;;1.00;;
65238;SDS011;51827;51.186;6.926;2023-01-16T00:37:00;2.75;;;1.10;;
65238;SDS011;51827;51.186;6.926;2023-01-16T00:38:00;2.60;;;1.10;;
65238;SDS011;51827;51.186;6.926;2023-01-16T00:39:01;2.58;;;1.20;;
65238;SDS011;51827;51.186;6.926;2023-01-16T00:40:01;3.10;;;1.00;;
65238;SDS011;51827;51.186;6.926;2023-01-16T00:41:02;6.93;;;1.30;;
65238;SDS011;51827;51.186;6.926;2023-01-16T00:42:02;2.50;;;1.23;;
65238;SDS011;51827;51.186;6.926;2023-01-16T00:43:02;1.90;;;1.33;;
65238;SDS011;51827;51.186;6.926;2023-01-16T00:44:03;2.27;;;1.10;;
65238;SDS011;51827;51.186;6.926;2023-01-16T00:45:03;2.15;;;1.00;;
65238;SDS011;51827;51.186;6.926;2023-01-16T00:46:04;2.25;;;1.10;;
65238;SDS011;51827;51.186;6.926;2023-01-16T00:47:04;1.80;;;1.10;;
65238;SDS011;51827;51.186;6.926;2023-01-16T00:48:05;1.30;;;0.90;;
65238;SDS011;51827;51.186;6.926;2023-01-16T00:50:06;4.35;;;1.10;;
65238;SDS011;51827;51.186;6.926;2023-01-16T00:51:07;2.17;;;1.15;;
65238;SDS011;51827;51.186;6.926;2023-01-16T00:52:07;2.17;;;0.97;;
65238;SDS011;51827;51.186;6.926;2023-01-16T00:53:07;1.27;;;1.00;;
65238;SDS011;51827;51.186;6.926;2023-01-16T00:54:07;1.90;;;1.17;;
65238;SDS011;51827;51.186;6.926;2023-01-16T00:55:08;2.63;;;1.20;;
65238;SDS011;51827;51.186;6.926;2023-01-16T00:56:08;2.97;;;1.10;;
65238;SDS011;51827;51.186;6.926;2023-01-16T00:57:08;1.37;;;1.00;;
65238;SDS011;51827;51.186;6.926;2023-01-16T00:58:09;1.27;;;0.93;;
65238;SDS011;51827;51.186;6.926;2023-01-16T00:59:09;2.17;;;1.17;;
65238;SDS011;51827;51.186;6.926;2023-01-16T01:00:10;1.60;;;1.05;;
65238;SDS011;51827;51.186;6.926;2023-01-16T01:01:11;1.83;;;1.02;;
65238;SDS011;51827;51.186;6.926;2023-01-16T01:02:11;1.87;;;1.20;;
65238;SDS011;51827;51.186;6.926;2023-01-16T01:03:11;3.07;;;1.07;;
65238;SDS011;51827;51.186;6.926;2023-01-16T01:04:11;1.70;;;1.10;;
65238;SDS011;51827;51.186;6.926;2023-01-16T01:05:12;2.70;;;1.13;;
65238;SDS011;51827;51.186;6.926;2023-01-16T01:06:12;1.97;;;1.10;;
65238;SDS011;51827;51.186;6.926;2023-01-16T01:07:12;2.40;;;1.33;;
65238;SDS011;51827;51.186;6.926;2023-01-16T01:08:12;2.03;;;1.10;;
65238;SDS011;51827;51.186;6.926;2023-01-16T01:09:13;2.10;;;1.27;;
65238;SDS011;51827;51.186;6.926;2023-01-16T01:10:13;3.30;;;1.20;;
65238;SDS011;51827;51.186;6.926;2023-01-16T01:11:13;4.00;;;1.20;;
65238;SDS011;51827;51.186;6.926;2023-01-16T01:12:14;2.25;;;1.20;;
65238;SDS011;51827;51.186;6.926;2023-01-16T01:13:14;1.98;;;1.15;;
65238;SDS011;51827;51.186;6.926;2023-01-16T01:14:15;2.25;;;1.10;;
65238;SDS011;51827;51.186;6.926;2023-01-16T01:15:15;2.20;;;1.10;;
65238;SDS011;51827;51.186;6.926;2023-01-16T01:16:16;2.30;;;1.07;;
65238;SDS011;51827;51.186;6.926;2023-01-16T01:17:16;1.30;;;0.88;;
65238;SDS011;51827;51.186;6.926;2023-01-16T01:18:16;1.17;;;0.97;;
65238;SDS011;51827;51.186;6.926;2023-01-16T01:19:17;1.57;;;1.13;;
65238;SDS011;51827;51.186;6.926;2023-01-16T01:20:17;2.10;;;1.07;;
65238;SDS011;51827;51.186;6.926;2023-01-16T01:21:17;1.97;;;1.20;;
65238;SDS011;51827;51.186;6.926;2023-01-16T01:22:18;1.67;;;1.00;;
65238;SDS011;51827;51.186;6.926;2023-01-16T01:23:18;1.75;;;1.05;;
65238;SDS011;51827;51.186;6.926;2023-01-16T01:24:18;1.47;;;1.00;;
65238;SDS011;51827;51.186;6.926;2023-01-16T01:25:19;3.47;;;1.17;;
65238;SDS011;51827;51.186;6.926;2023-01-16T01:26:19;3.07;;;1.07;;
65238;SDS011;51827;51.186;6.926;2023-01-16T01:27:19;1.43;;;1.10;;
65238;SDS011;51827;51.186;6.926;2023-01-16T01:28:20;3.50;;;1.50;;
65238;SDS011;51827;51.186;6.926;2023-01-16T01:29:20;3.05;;;1.10;;
65238;SDS011;51827;51.186;6.926;2023-01-16T01:30:20;2.17;;;1.10;;
65238;SDS011;51827;51.186;6.926;2023-01-16T01:31:21;1.60;;;0.95;;
65238;SDS011;51827;51.186;6.926;2023-01-16T01:32:21;2.53;;;1.07;;
65238;SDS011;51827;51.186;6.926;2023-01-16T01:33:21;1.50;;;0.90;;
65238;SDS011;51827;51.186;6.926;2023-01-16T01:34:22;2.10;;;1.00;;
65238;SDS011;51827;51.186;6.926;2023-01-16T01:35:22;1.40;;;1.00;;
65238;SDS011;51827;51.186;6.926;2023-01-16T01:36:22;2.10;;;1.33;;
65238;SDS011;51827;51.186;6.926;2023-01-16T01:37:23;1.37;;;1.00;;
65238;SDS011;51827;51.186;6.926;2023-01-16T01:38:23;2.87;;;0.83;;
65238;SDS011;51827;51.186;6.926;2023-01-16T01:39:23;2.10;;;1.10;;
65238;SDS011;51827;51.186;6.926;2023-01-16T01:40:23;1.63;;;1.00;;
65238;SDS011;51827;51.186;6.926;2023-01-16T01:41:24;2.83;;;1.10;;
65238;SDS011;51827;51.186;6.926;2023-01-16T01:42:24;1.90;;;1.20;;
65238;SDS011;51827;51.186;6.926;2023-01-16T01:43:38;2.50;;;1.17;;
65238;SDS011;51827;51.186;6.926;2023-01-16T01:44:51;3.90;;;1.10;;
65238;SDS011;51827;51.186;6.926;2023-01-16T01:45:53;1.90;;;1.00;;
65238;SDS011;51827;51.186;6.926;2023-01-16T01:46:54;1.48;;;0.90;;
65238;SDS011;51827;51.186;6.926;2023-01-16T01:48:08;1.67;;;1.17;;
65238;SDS011;51827;51.186;6.926;2023-01-16T01:49:22;2.70;;;1.00;;
65238;SDS011;51827;51.186;6.926;2023-01-16T01:50:29;2.47;;;1.20;;
65238;SDS011;51827;51.186;6.926;2023-01-16T01:51:36;2.35;;;1.10;;
65238;SDS011;51827;51.186;6.926;2023-01-16T01:52:39;2.65;;;1.10;;
65238;SDS011;51827;51.186;6.926;2023-01-16T01:53:48;2.85;;;1.13;;
65238;SDS011;51827;51.186;6.926;2023-01-16T01:54:55;2.55;;;1.10;;
65238;SDS011;51827;51.186;6.926;2023-01-16T01:56:00;2.35;;;1.10;;
65238;SDS011;51827;51.186;6.926;2023-01-16T01:57:04;1.83;;;1.30;;
65238;SDS011;51827;51.186;6.926;2023-01-16T01:58:38;2.50;;;1.00;;
65238;SDS011;51827;51.186;6.926;2023-01-16T01:59:41;1.45;;;1.00;;
65238;SDS011;51827;51.186;6.926;2023-01-16T02:00:46;2.15;;;1.20;;
65238;SDS011;51827;51.186;6.926;2023-01-16T02:01:48;1.83;;;0.98;;
65238;SDS011;51827;51.186;6.926;2023-01-16T02:02:58;1.67;;;1.00;;
65238;SDS011;51827;51.186;6.926;2023-01-16T02:04:05;1.23;;;0.93;;
65238;SDS011;51827;51.186;6.926;2023-01-16T02:05:16;1.38;;;1.02;;
65238;SDS011;51827;51.186;6.926;2023-01-16T02:06:21;2.00;;;0.90;;
65238;SDS011;51827;51.186;6.926;2023-01-16T02:07:27;1.40;;;0.93;;
65238;SDS011;51827;51.186;6.926;2023-01-16T02:08:29;1.83;;;0.98;;
65238;SDS011;51827;51.186;6.926;2023-01-16T02:09:32;1.75;;;1.15;;
65238;SDS011;51827;51.186;6.926;2023-01-16T02:10:38;1.48;;;0.90;;
65238;SDS011;51827;51.186;6.926;2023-01-16T02:11:47;1.65;;;0.90;;
65238;SDS011;51827;51.186;6.926;2023-01-16T02:12:50;2.22;;;1.05;;
65238;SDS011;51827;51.186;6.926;2023-01-16T02:13:53;3.47;;;1.40;;
65238;SDS011;51827;51.186;6.926;2023-01-16T02:14:55;2.55;;;1.00;;
65238;SDS011;51827;51.186;6.926;2023-01-16T02:16:58;1.47;;;0.90;;
65238;SDS011;51827;51.186;6.926;2023-01-16T02:18:04;1.40;;;1.00;;
65238;SDS011;51827;51.186;6.926;2023-01-16T02:19:10;2.10;;;1.00;;
65238;SDS011;51827;51.186;6.926;2023-01-16T02:20:36;1.85;;;1.00;;
65238;SDS011;51827;51.186;6.926;2023-01-16T02:24:27;1.80;;;0.98;;
65238;SDS011;51827;51.186;6.926;2023-01-16T02:26:53;1.40;;;0.98;;
65238;SDS011;51827;51.186;6.926;2023-01-16T02:29:49;1.70;;;1.02;;
65238;SDS011;51827;51.186;6.926;2023-01-16T02:31:00;4.40;;;1.00;;
65238;SDS011;51827;51.186;6.926;2023-01-16T02:33:40;1.80;;;0.90;;
65238;SDS011;51827;51.186;6.926;2023-01-16T02:36:11;1.02;;;0.70;;
65238;SDS011;51827;51.186;6.926;2023-01-16T02:38:35;2.65;;;1.10;;
65238;SDS011;51827;51.186;6.926;2023-01-16T02:42:16;1.43;;;0.93;;
65238;SDS011;51827;51.186;6.926;2023-01-16T02:43:32;1.45;;;0.95;;
65238;SDS011;51827;51.186;6.926;2023-01-16T02:45:48;3.07;;;0.90;;
65238;SDS011;51827;51.186;6.926;2023-01-16T02:48:27;1.33;;;0.93;;
65238;SDS011;51827;51.186;6.926;2023-01-16T02:51:06;1.40;;;1.02;;
65238;SDS011;51827;51.186;6.926;2023-01-16T02:52:43;1.55;;;1.13;;
65238;SDS011;51827;51.186;6.926;2023-01-16T02:55:02;1.45;;;1.00;;
65238;SDS011;51827;51.186;6.926;2023-01-16T02:56:08;1.10;;;0.85;;
65238;SDS011;51827;51.186;6.926;2023-01-16T02:57:17;2.20;;;1.00;;
65238;SDS011;51827;51.186;6.926;2023-01-16T02:58:19;1.90;;;1.08;;
65238;SDS011;51827;51.186;6.926;2023-01-16T02:59:21;2.00;;;1.00;;
65238;SDS011;51827;51.186;6.926;2023-01-16T03:00:23;1.10;;;0.90;;
65238;SDS011;51827;51.186;6.926;2023-01-16T03:01:24;3.45;;;1.17;;
65238;SDS011;51827;51.186;6.926;2023-01-16T03:02:24;1.57;;;0.93;;
65238;SDS011;51827;51.186;6.926;2023-01-16T03:04:50;2.08;;;1.10;;
65238;SDS011;51827;51.186;6.926;2023-01-16T03:05:51;1.33;;;1.00;;
65238;SDS011;51827;51.186;6.926;2023-01-16T03:08:12;1.92;;;1.13;;
65238;SDS011;51827;51.186;6.926;2023-01-16T03:18:46;1.53;;;1.00;;
65238;SDS011;51827;51.186;6.926;2023-01-16T03:20:50;3.47;;;1.00;;
65238;SDS011;51827;51.186;6.926;2023-01-16T03:24:24;2.60;;;1.08;;
65238;SDS011;51827;51.186;6.926;2023-01-16T03:25:28;1.38;;;0.90;;
65238;SDS011;51827;51.186;6.926;2023-01-16T03:26:52;1.98;;;1.00;;
65238;SDS011;51827;51.186;6.926;2023-01-16T03:28:05;1.30;;;0.85;;
65238;SDS011;51827;51.186;6.926;2023-01-16T03:31:57;2.38;;;0.90;;
65238;SDS011;51827;51.186;6.926;2023-01-16T03:33:09;2.70;;;0.90;;
65238;SDS011;51827;51.186;6.926;2023-01-16T03:35:44;1.58;;;0.98;;
65238;SDS011;51827;51.186;6.926;2023-01-16T03:36:56;1.58;;;1.00;;
65238;SDS011;51827;51.186;6.926;2023-01-16T03:39:06;0.80;;;0.80;;
65238;SDS011;51827;51.186;6.926;2023-01-16T03:40:09;1.20;;;0.82;;
65238;SDS011;51827;51.186;6.926;2023-01-16T03:41:14;1.30;;;0.80;;
65238;SDS011;51827;51.186;6.926;2023-01-16T03:42:22;2.10;;;1.10;;
65238;SDS011;51827;51.186;6.926;2023-01-16T03:43:35;0.90;;;0.80;;
65238;SDS011;51827;51.186;6.926;2023-01-16T03:44:39;1.65;;;1.10;;
65238;SDS011;51827;51.186;6.926;2023-01-16T03:45:47;1.58;;;0.88;;
65238;SDS011;51827;51.186;6.926;2023-01-16T03:46:52;1.77;;;0.70;;
65238;SDS011;51827;51.186;6.926;2023-01-16T03:47:58;1.80;;;0.98;;
65238;SDS011;51827;51.186;6.926;2023-01-16T03:49:03;0.80;;;0.77;;
65238;SDS011;51827;51.186;6.926;2023-01-16T03:50:07;1.42;;;0.85;;
65238;SDS011;51827;51.186;6.926;2023-01-16T03:51:11;1.73;;;1.00;;
65238;SDS011;51827;51.186;6.926;2023-01-16T03:52:19;1.55;;;0.90;;
65238;SDS011;51827;51.186;6.926;2023-01-16T03:53:23;1.95;;;1.00;;
65238;SDS011;51827;51.186;6.926;2023-01-16T03:55:51;1.13;;;0.80;;
65238;SDS011;51827;51.186;6.926;2023-01-16T03:58:11;1.33;;;0.70;;
65238;SDS011;51827;51.186;6.926;2023-01-16T03:59:21;1.67;;;0.90;;
65238;SDS011;51827;51.186;6.926;2023-01-16T04:00:22;2.15;;;1.05;;
65238;SDS011;51827;51.186;6.926;2023-01-16T04:01:46;1.40;;;0.90;;
65238;SDS011;51827;51.186;6.926;2023-01-16T04:02:54;1.98;;;0.80;;
65238;SDS011;51827;51.186;6.926;2023-01-16T04:04:04;1.90;;;0.93;;
65238;SDS011;51827;51.186;6.926;2023-01-16T04:05:09;1.33;;;0.88;;
65238;SDS011;51827;51.186;6.926;2023-01-16T04:07:41;1.70;;;0.88;;
65238;SDS011;51827;51.186;6.926;2023-01-16T04:08:44;1.42;;;0.77;;
65238;SDS011;51827;51.186;6.926;2023-01-16T04:10:50;1.63;;;0.88;;
65238;SDS011;51827;51.186;6.926;2023-01-16T04:11:52;4.78;;;0.85;;
65238;SDS011;51827;51.186;6.926;2023-01-16T04:12:54;1.17;;;0.85;;
65238;SDS011;51827;51.186;6.926;2023-01-16T04:13:58;1.63;;;0.90;;
65238;SDS011;51827;51.186;6.926;2023-01-16T04:15:04;1.45;;;0.70;;
65238;SDS011;51827;51.186;6.926;2023-01-16T04:16:07;1.20;;;0.80;;
65238;SDS011;51827;51.186;6.926;2023-01-16T04:17:09;0.98;;;0.80;;
65238;SDS011;51827;51.186;6.926;2023-01-16T04:18:09;1.40;;;1.00;;
65238;SDS011;51827;51.186;6.926;2023-01-16T04:19:11;1.17;;;0.80;;
65238;SDS011;51827;51.186;6.926;2023-01-16T04:20:13;2.38;;;0.90;;
65238;SDS011;51827;51.186;6.926;2023-01-16T04:21:14;1.77;;;0.83;;
65238;SDS011;51827;51.186;6.926;2023-01-16T04:22:18;1.67;;;0.90;;
65238;SDS011;51827;51.186;6.926;2023-01-16T04:23:23;0.88;;;0.70;;
65238;SDS011;51827;51.186;6.926;2023-01-16T04:24:24;1.50;;;0.93;;
65238;SDS011;51827;51.186;6.926;2023-01-16T04:25:24;1.48;;;0.85;;
65238;SDS011;51827;51.186;6.926;2023-01-16T04:26:25;1.48;;;0.90;;
65238;SDS011;51827;51.186;6.926;2023-01-16T04:27:25;1.02;;;0.80;;
65238;SDS011;51827;51.186;6.926;2023-01-16T04:28:26;2.42;;;0.80;;
65238;SDS011;51827;51.186;6.926;2023-01-16T04:29:26;0.80;;;0.70;;
65238;SDS011;51827;51.186;6.926;2023-01-16T04:30:26;1.77;;;0.97;;
65238;SDS011;51827;51.186;6.926;2023-01-16T04:31:26;1.27;;;0.77;;
65238;SDS011;51827;51.186;6.926;2023-01-16T04:32:27;1.10;;;0.90;;
65238;SDS011;51827;51.186;6.926;2023-01-16T04:33:27;1.88;;;1.00;;
65238;SDS011;51827;51.186;6.926;2023-01-16T04:34:27;1.43;;;0.83;;
65238;SDS011;51827;51.186;6.926;2023-01-16T04:35:28;1.37;;;0.80;;
65238;SDS011;51827;51.186;6.926;2023-01-16T04:36:28;1.77;;;0.90;;
65238;SDS011;51827;51.186;6.926;2023-01-16T04:37:28;1.40;;;0.90;;
65238;SDS011;51827;51.186;6.926;2023-01-16T04:38:29;2.30;;;0.90;;
65238;SDS011;51827;51.186;6.926;2023-01-16T04:39:29;1.53;;;1.10;;
65238;SDS011;51827;51.186;6.926;2023-01-16T04:40:29;0.98;;;0.77;;
65238;SDS011;51827;51.186;6.926;2023-01-16T04:41:29;0.87;;;0.80;;
65238;SDS011;51827;51.186;6.926;2023-01-16T04:42:30;0.90;;;0.77;;
65238;SDS011;51827;51.186;6.926;2023-01-16T04:43:30;2.07;;;1.40;;
65238;SDS011;51827;51.186;6.926;2023-01-16T04:44:30;1.13;;;0.83;;
65238;SDS011;51827;51.186;6.926;2023-01-16T04:45:30;0.70;;;0.70;;
65238;SDS011;51827;51.186;6.926;2023-01-16T04:46:31;1.97;;;0.80;;
65238;SDS011;51827;51.186;6.926;2023-01-16T04:47:32;1.10;;;0.80;;
65238;SDS011;51827;51.186;6.926;2023-01-16T04:48:32;2.07;;;0.80;;
65238;SDS011;51827;51.186;6.926;2023-01-16T04:49:32;1.08;;;0.80;;
65238;SDS011;51827;51.186;6.926;2023-01-16T04:50:33;1.67;;;1.07;;
65238;SDS011;51827;51.186;6.926;2023-01-16T04:51:34;0.90;;;0.80;;
65238;SDS011;51827;51.186;6.926;2023-01-16T04:52:35;1.90;;;1.30;;
65238;SDS011;51827;51.186;6.926;2023-01-16T04:53:35;1.60;;;0.93;;
65238;SDS011;51827;51.186;6.926;2023-01-16T04:54:35;2.77;;;0.97;;
65238;SDS011;51827;51.186;6.926;2023-01-16T04:55:36;1.40;;;0.90;;
65238;SDS011;51827;51.186;6.926;2023-01-16T04:56:36;0.67;;;0.63;;
65238;SDS011;51827;51.186;6.926;2023-01-16T04:57:36;0.93;;;0.60;;
65238;SDS011;51827;51.186;6.926;2023-01-16T04:58:37;1.15;;;0.80;;
65238;SDS011;51827;51.186;6.926;2023-01-16T04:59:37;0.90;;;0.67;;
65238;SDS011;51827;51.186;6.926;2023-01-16T05:00:37;1.33;;;0.80;;
65238;SDS011;51827;51.186;6.926;2023-01-16T05:01:38;1.30;;;1.00;;
65238;SDS011;51827;51.186;6.926;2023-01-16T05:02:39;1.02;;;0.80;;
65238;SDS011;51827;51.186;6.926;2023-01-16T05:03:39;1.17;;;0.80;;
65238;SDS011;51827;51.186;6.926;2023-01-16T05:04:39;1.07;;;0.83;;
65238;SDS011;51827;51.186;6.926;2023-01-16T05:05:40;1.27;;;0.90;;
65238;SDS011;51827;51.186;6.926;2023-01-16T05:06:40;2.00;;;1.00;;
65238;SDS011;51827;51.186;6.926;2023-01-16T05:07:40;0.95;;;0.80;;
65238;SDS011;51827;51.186;6.926;2023-01-16T05:08:41;1.40;;;0.97;;
65238;SDS011;51827;51.186;6.926;2023-01-16T05:09:41;3.57;;;0.93;;
65238;SDS011;51827;51.186;6.926;2023-01-16T05:10:41;1.90;;;0.80;;
65238;SDS011;51827;51.186;6.926;2023-01-16T05:11:42;3.13;;;1.00;;
65238;SDS011;51827;51.186;6.926;2023-01-16T05:12:42;1.03;;;0.80;;
65238;SDS011;51827;51.186;6.926;2023-01-16T05:13:42;2.43;;;1.00;;
65238;SDS011;51827;51.186;6.926;2023-01-16T05:14:42;3.53;;;0.93;;
65238;SDS011;51827;51.186;6.926;2023-01-16T05:15:43;3.83;;;1.10;;
65238;SDS011;51827;51.186;6.926;2023-01-16T05:16:43;4.20;;;0.98;;
65238;SDS011;51827;51.186;6.926;2023-01-16T05:17:44;1.20;;;0.73;;
65238;SDS011;51827;51.186;6.926;2023-01-16T05:18:45;2.53;;;1.02;;
65238;SDS011;51827;51.186;6.926;2023-01-16T05:19:46;1.87;;;0.90;;
65238;SDS011;51827;51.186;6.926;2023-01-16T05:20:46;1.53;;;0.90;;
65238;SDS011;51827;51.186;6.926;2023-01-16T05:21:46;4.10;;;1.50;;
65238;SDS011;51827;51.186;6.926;2023-01-16T05:22:47;7.83;;;1.70;;
65238;SDS011;51827;51.186;6.926;2023-01-16T05:23:47;7.15;;;1.67;;
65238;SDS011;51827;51.186;6.926;2023-01-16T05:24:47;7.43;;;2.10;;
65238;SDS011;51827;51.186;6.926;2023-01-16T05:25:47;4.10;;;2.50;;
65238;SDS011;51827;51.186;6.926;2023-01-16T05:26:48;4.43;;;2.53;;
65238;SDS011;51827;51.186;6.926;2023-01-16T05:27:49;8.53;;;2.10;;
65238;SDS011;51827;51.186;6.926;2023-01-16T05:29:49;9.53;;;2.40;;
65238;SDS011;51827;51.186;6.926;2023-01-16T05:30:50;5.57;;;2.13;;
65238;SDS011;51827;51.186;6.926;2023-01-16T05:31:50;7.67;;;2.10;;
65238;SDS011;51827;51.186;6.926;2023-01-16T05:32:50;5.07;;;2.10;;
65238;SDS011;51827;51.186;6.926;2023-01-16T05:33:50;8.70;;;2.77;;
65238;SDS011;51827;51.186;6.926;2023-01-16T05:34:51;5.67;;;2.10;;
65238;SDS011;51827;51.186;6.926;2023-01-16T05:35:51;3.50;;;1.70;;
65238;SDS011;51827;51.186;6.926;2023-01-16T05:36:51;6.13;;;2.10;;
65238;SDS011;51827;51.186;6.926;2023-01-16T05:37:51;4.57;;;1.97;;
65238;SDS011;51827;51.186;6.926;2023-01-16T05:38:52;7.90;;;2.10;;
65238;SDS011;51827;51.186;6.926;2023-01-16T05:39:52;3.07;;;1.63;;
65238;SDS011;51827;51.186;6.926;2023-01-16T05:40:52;5.37;;;1.63;;
65238;SDS011;51827;51.186;6.926;2023-01-16T05:41:52;4.33;;;1.77;;
65238;SDS011;51827;51.186;6.926;2023-01-16T05:42:53;3.40;;;1.67;;
65238;SDS011;51827;51.186;6.926;2023-01-16T05:43:53;4.40;;;1.60;;
65238;SDS011;51827;51.186;6.926;2023-01-16T05:44:53;3.17;;;1.60;;
65238;SDS011;51827;51.186;6.926;2023-01-16T05:45:53;4.07;;;1.77;;
65238;SDS011;51827;51.186;6.926;2023-01-16T05:46:54;12.40;;;2.17;;
65238;SDS011;51827;51.186;6.926;2023-01-16T05:47:54;18.43;;;3.67;;
65238;SDS011;51827;51.186;6.926;2023-01-16T05:48:54;17.80;;;4.40;;
65238;SDS011;51827;51.186;6.926;2023-01-16T05:49:55;40.47;;;5.90;;
65238;SDS011;51827;51.186;6.926;2023-01-16T05:50:55;49.53;;;7.70;;
65238;SDS011;51827;51.186;6.926;2023-01-16T05:51:55;39.10;;;5.67;;
65238;SDS011;51827;51.186;6.926;2023-01-16T05:52:55;41.60;;;6.07;;
65238;SDS011;51827;51.186;6.926;2023-01-16T05:53:56;48.90;;;7.85;;
65238;SDS011;51827;51.186;6.926;2023-01-16T05:54:56;39.27;;;6.83;;
65238;SDS011;51827;51.186;6.926;2023-01-16T05:55:57;45.53;;;7.70;;
65238;SDS011;51827;51.186;6.926;2023-01-16T05:56:58;42.28;;;6.57;;
65238;SDS011;51827;51.186;6.926;2023-01-16T05:57:58;39.60;;;6.53;;
65238;SDS011;51827;51.186;6.926;2023-01-16T05:58:58;39.30;;;6.40;;
65238;SDS011;51827;51.186;6.926;2023-01-16T05:59:59;37.03;;;6.13;;
65238;SDS011;51827;51.186;6.926;2023-01-16T06:00:59;34.77;;;6.97;;
65238;SDS011;51827;51.186;6.926;2023-01-16T06:01:59;35.33;;;6.47;;
65238;SDS011;51827;51.186;6.926;2023-01-16T06:03:00;39.60;;;6.87;;
65238;SDS011;51827;51.186;6.926;2023-01-16T06:04:00;42.70;;;6.40;;
65238;SDS011;51827;51.186;6.926;2023-01-16T06:05:00;33.77;;;5.90;;
65238;SDS011;51827;51.186;6.926;2023-01-16T06:06:01;26.20;;;5.75;;
65238;SDS011;51827;51.186;6.926;2023-01-16T06:07:01;42.47;;;6.03;;
65238;SDS011;51827;51.186;6.926;2023-01-16T06:08:01;37.10;;;6.90;;
65238;SDS011;51827;51.186;6.926;2023-01-16T06:09:02;30.33;;;5.38;;
65238;SDS011;51827;51.186;6.926;2023-01-16T06:10:03;29.87;;;6.23;;
65238;SDS011;51827;51.186;6.926;2023-01-16T06:11:03;32.97;;;5.65;;
65238;SDS011;51827;51.186;6.926;2023-01-16T06:12:04;28.27;;;5.30;;
65238;SDS011;51827;51.186;6.926;2023-01-16T06:13:04;33.72;;;5.88;;
65238;SDS011;51827;51.186;6.926;2023-01-16T06:14:05;32.33;;;4.68;;
65238;SDS011;51827;51.186;6.926;2023-01-16T06:15:06;23.83;;;5.23;;
65238;SDS011;51827;51.186;6.926;2023-01-16T06:16:07;20.77;;;5.00;;
65238;SDS011;51827;51.186;6.926;2023-01-16T06:17:07;24.20;;;4.73;;
65238;SDS011;51827;51.186;6.926;2023-01-16T06:18:07;37.33;;;4.57;;
65238;SDS011;51827;51.186;6.926;2023-01-16T06:19:07;27.00;;;5.53;;
65238;SDS011;51827;51.186;6.926;2023-01-16T06:20:09;20.83;;;3.93;;
65238;SDS011;51827;51.186;6.926;2023-01-16T06:21:10;25.05;;;4.90;;
65238;SDS011;51827;51.186;6.926;2023-01-16T06:22:11;37.60;;;5.10;;
65238;SDS011;51827;51.186;6.926;2023-01-16T06:23:12;21.33;;;4.18;;
65238;SDS011;51827;51.186;6.926;2023-01-16T06:24:13;22.93;;;4.27;;
65238;SDS011;51827;51.186;6.926;2023-01-16T06:25:13;20.27;;;4.20;;
65238;SDS011;51827;51.186;6.926;2023-01-16T06:26:13;21.27;;;5.00;;
65238;SDS011;51827;51.186;6.926;2023-01-16T06:27:13;15.77;;;4.23;;
65238;SDS011;51827;51.186;6.926;2023-01-16T06:28:14;20.77;;;4.30;;
65238;SDS011;51827;51.186;6.926;2023-01-16T06:29:14;21.93;;;4.37;;
65238;SDS011;51827;51.186;6.926;2023-01-16T06:30:14;17.50;;;4.37;;
65238;SDS011;51827;51.186;6.926;2023-01-16T06:31:15;19.38;;;4.15;;
65238;SDS011;51827;51.186;6.926;2023-01-16T06:32:15;20.83;;;4.10;;
65238;SDS011;51827;51.186;6.926;2023-01-16T06:33:15;16.17;;;4.03;;
65238;SDS011;51827;51.186;6.926;2023-01-16T06:34:16;11.00;;;3.40;;
65238;SDS011;51827;51.186;6.926;2023-01-16T06:35:17;19.25;;;4.15;;
65238;SDS011;51827;51.186;6.926;2023-01-16T06:36:17;18.60;;;4.10;;
65238;SDS011;51827;51.186;6.926;2023-01-16T06:37:18;17.20;;;4.13;;
65238;SDS011;51827;51.186;6.926;2023-01-16T06:38:18;19.37;;;3.83;;
65238;SDS011;51827;51.186;6.926;2023-01-16T06:39:18;17.73;;;3.53;;
65238;SDS011;51827;51.186;6.926;2023-01-16T06:40:18;12.33;;;3.10;;
65238;SDS011;51827;51.186;6.926;2023-01-16T06:41:19;19.63;;;3.97;;
65238;SDS011;51827;51.186;6.926;2023-01-16T06:42:19;15.63;;;3.63;;
65238;SDS011;51827;51.186;6.926;2023-01-16T06:43:19;16.97;;;3.50;;
65238;SDS011;51827;51.186;6.926;2023-01-16T06:44:19;15.37;;;3.20;;
65238;SDS011;51827;51.186;6.926;2023-01-16T06:45:20;9.47;;;2.87;;
65238;SDS011;51827;51.186;6.926;2023-01-16T06:46:20;12.80;;;3.10;;
65238;SDS011;51827;51.186;6.926;2023-01-16T06:47:20;8.83;;;2.60;;
65238;SDS011;51827;51.186;6.926;2023-01-16T06:48:20;15.07;;;3.77;;
65238;SDS011;51827;51.186;6.926;2023-01-16T06:49:21;9.43;;;3.00;;
65238;SDS011;51827;51.186;6.926;2023-01-16T06:50:24;11.57;;;2.70;;
65238;SDS011;51827;51.186;6.926;2023-01-16T06:51:24;13.70;;;3.05;;
65238;SDS011;51827;51.186;6.926;2023-01-16T06:52:25;16.08;;;2.90;;
65238;SDS011;51827;51.186;6.926;2023-01-16T06:53:25;12.47;;;3.03;;
65238;SDS011;51827;51.186;6.926;2023-01-16T06:54:26;10.13;;;2.80;;
65238;SDS011;51827;51.186;6.926;2023-01-16T06:55:27;12.20;;;2.88;;
65238;SDS011;51827;51.186;6.926;2023-01-16T06:56:27;16.88;;;2.80;;
65238;SDS011;51827;51.186;6.926;2023-01-16T06:57:27;18.03;;;2.80;;
65238;SDS011;51827;51.186;6.926;2023-01-16T06:58:27;14.23;;;3.27;;
65238;SDS011;51827;51.186;6.926;2023-01-16T06:59:28;11.17;;;2.90;;
65238;SDS011;51827;51.186;6.926;2023-01-16T07:00:28;13.13;;;2.73;;
65238;SDS011;51827;51.186;6.926;2023-01-16T07:01:28;12.50;;;3.00;;